Time;durP1;ratioP1;P1;durP2;ratioP2;P2;SDS_P1;SDS_P2;PMS_P1;PMS_P2;Temp;Humidity;BMP_temperature;BMP_pressure;BME280_temperature;BME280_humidity;BME280_pressure;Samples;Min_cycle;Max_cycle;Signal;HPM_P1;HPM_P2
2022/03/06 00:01:12;;;;;;;30.10;18.07;;;2.50;99.90;;;;;;5005709;28;20517;-38
2022/03/06 00:03:38;;;;;;;27.07;17.37;;;2.60;99.90;;;;;;5019764;28;20187;-39
2022/03/06 00:06:03;;;;;;;25.70;16.87;;;2.70;99.90;;;;;;5025089;28;20495;-38
2022/03/06 00:08:29;;;;;;;29.40;18.30;;;2.40;99.90;;;;;;5026650;28;20186;-39
2022/03/06 00:10:57;;;;;;;28.57;18.17;;;2.60;99.90;;;;;;5017500;28;20313;-38
2022/03/06 00:13:23;;;;;;;27.63;18.07;;;2.40;99.90;;;;;;5023850;28;20268;-38
2022/03/06 00:15:48;;;;;;;30.73;17.80;;;2.20;99.90;;;;;;5023137;28;20952;-38
2022/03/06 00:18:14;;;;;;;28.67;19.40;;;2.10;99.90;;;;;;5027122;28;20528;-38
2022/03/06 00:20:42;;;;;;;29.70;18.03;;;2.10;99.90;;;;;;5026268;28;20660;-39
2022/03/06 00:23:07;;;;;;;29.13;18.20;;;2.40;99.90;;;;;;5042885;28;20197;-38
2022/03/06 00:25:33;;;;;;;30.97;19.20;;;2.40;99.90;;;;;;5031604;28;20773;-39
2022/03/06 00:27:59;;;;;;;23.33;16.63;;;2.30;99.90;;;;;;5024604;28;20198;-39
2022/03/06 00:30:24;;;;;;;26.20;17.73;;;2.30;99.90;;;;;;5026060;28;20221;-38
2022/03/06 00:32:50;;;;;;;29.00;17.60;;;2.50;99.90;;;;;;5025676;28;20263;-39
2022/03/06 00:35:15;;;;;;;28.63;19.00;;;2.50;99.90;;;;;;5026724;28;20185;-39
2022/03/06 00:37:41;;;;;;;31.47;18.90;;;2.10;99.90;;;;;;5026704;28;20673;-39
2022/03/06 00:40:08;;;;;;;29.73;17.83;;;2.10;99.90;;;;;;5021235;28;20502;-38
2022/03/06 00:42:34;;;;;;;31.30;20.03;;;2.10;99.90;;;;;;5024474;28;20194;-38
2022/03/06 00:45:00;;;;;;;32.30;19.80;;;2.20;99.90;;;;;;5026647;28;20922;-39
2022/03/06 00:47:25;;;;;;;26.90;18.40;;;2.00;99.90;;;;;;5005604;28;20454;-39
2022/03/06 00:49:51;;;;;;;30.63;18.27;;;2.20;99.90;;;;;;5019528;28;20438;-38
2022/03/06 00:52:17;;;;;;;26.47;17.27;;;2.20;99.90;;;;;;5026277;28;20383;-39
2022/03/06 00:54:42;;;;;;;35.80;20.53;;;2.40;99.90;;;;;;5025329;28;21086;-39
2022/03/06 00:57:08;;;;;;;28.80;18.53;;;2.20;99.90;;;;;;5014244;28;20194;-38
2022/03/06 00:59:35;;;;;;;28.13;17.93;;;2.20;99.90;;;;;;5027876;28;20228;-38
2022/03/06 01:02:06;;;;;;;28.47;19.00;;;1.90;99.90;;;;;;5030009;28;20187;-38
2022/03/06 01:04:32;;;;;;;29.77;17.87;;;2.00;99.90;;;;;;5030917;28;20819;-39
2022/03/06 01:06:58;;;;;;;26.60;18.70;;;2.10;99.90;;;;;;5030467;28;20420;-39
2022/03/06 01:09:24;;;;;;;28.80;18.40;;;2.30;99.90;;;;;;5030697;28;20555;-39
2022/03/06 01:11:50;;;;;;;31.07;19.70;;;2.20;99.90;;;;;;5019899;28;20784;-38
2022/03/06 01:14:15;;;;;;;32.87;18.77;;;2.40;99.90;;;;;;5030245;28;20187;-39
2022/03/06 01:16:41;;;;;;;29.50;18.50;;;2.20;99.90;;;;;;5030532;28;20186;-38
2022/03/06 01:19:07;;;;;;;26.17;16.83;;;2.20;99.90;;;;;;5030392;28;20193;-39
2022/03/06 01:21:32;;;;;;;27.10;17.97;;;2.30;99.90;;;;;;5033965;28;20276;-38
2022/03/06 01:23:58;;;;;;;28.00;18.23;;;2.30;99.90;;;;;;5048981;28;20200;-39
2022/03/06 01:26:23;;;;;;;32.27;19.33;;;2.20;99.90;;;;;;5030562;28;20285;-38
2022/03/06 01:28:49;;;;;;;31.87;18.97;;;2.00;99.90;;;;;;5030348;28;20640;-39
2022/03/06 01:31:15;;;;;;;28.30;18.87;;;2.00;99.90;;;;;;5029515;28;20567;-39
2022/03/06 01:33:41;;;;;;;26.50;17.63;;;2.00;99.90;;;;;;5030069;28;20178;-39
2022/03/06 01:36:07;;;;;;;27.07;18.23;;;2.00;99.90;;;;;;5029919;28;20278;-39
2022/03/06 01:38:32;;;;;;;29.63;18.37;;;2.00;99.90;;;;;;5030444;28;20191;-38
2022/03/06 01:40:58;;;;;;;28.23;20.23;;;2.00;99.90;;;;;;5026446;28;20444;-38
2022/03/06 01:43:24;;;;;;;29.87;18.57;;;1.80;99.90;;;;;;5030012;28;20262;-40
2022/03/06 01:45:49;;;;;;;28.60;17.40;;;1.90;99.90;;;;;;5029518;28;20213;-39
2022/03/06 01:48:15;;;;;;;30.37;19.07;;;1.90;99.90;;;;;;5029913;28;20252;-39
2022/03/06 01:50:41;;;;;;;28.30;19.30;;;1.70;99.90;;;;;;5028743;28;20182;-38
2022/03/06 01:53:09;;;;;;;30.90;19.47;;;1.80;99.90;;;;;;5030068;28;20226;-38
2022/03/06 01:55:36;;;;;;;26.07;17.37;;;1.80;99.90;;;;;;5026366;28;20458;-38
2022/03/06 01:58:08;;;;;;;33.70;21.37;;;1.50;99.90;;;;;;5023387;28;20492;-39
2022/03/06 02:00:44;;;;;;;31.83;19.07;;;1.60;99.90;;;;;;5028769;28;20944;-38
2022/03/06 02:03:10;;;;;;;28.73;19.33;;;1.60;99.90;;;;;;5029358;28;20994;-39
2022/03/06 02:05:38;;;;;;;31.23;19.73;;;1.60;99.90;;;;;;5029459;28;20779;-40
2022/03/06 02:08:05;;;;;;;30.70;19.37;;;1.70;99.90;;;;;;5029526;28;20421;-39
2022/03/06 02:10:32;;;;;;;24.73;17.47;;;1.70;99.90;;;;;;5026516;28;20484;-39
2022/03/06 02:12:58;;;;;;;29.97;19.60;;;2.00;99.90;;;;;;5022408;28;20897;-38
2022/03/06 02:15:24;;;;;;;30.23;19.87;;;2.10;99.90;;;;;;5029119;28;20441;-39
2022/03/06 02:17:50;;;;;;;27.03;17.37;;;2.00;99.90;;;;;;5028954;28;20186;-39
2022/03/06 02:20:17;;;;;;;28.00;19.33;;;2.10;99.90;;;;;;5028886;28;20417;-39
2022/03/06 02:22:54;;;;;;;28.47;18.37;;;1.90;99.90;;;;;;5022182;28;20487;-38
2022/03/06 02:25:22;;;;;;;26.93;17.90;;;2.00;99.90;;;;;;5027783;28;20413;-38
2022/03/06 02:27:50;;;;;;;26.73;18.13;;;2.00;99.90;;;;;;5020449;28;21026;-39
2022/03/06 02:30:18;;;;;;;26.93;17.73;;;1.90;99.90;;;;;;5028355;28;20954;-39
2022/03/06 02:32:46;;;;;;;28.97;19.30;;;1.90;99.90;;;;;;5029149;28;20461;-39
2022/03/06 02:35:12;;;;;;;30.23;17.87;;;1.60;99.90;;;;;;5029372;28;20501;-39
2022/03/06 02:37:37;;;;;;;31.50;18.20;;;1.80;99.90;;;;;;5028945;28;20424;-38
2022/03/06 02:40:06;;;;;;;24.90;17.60;;;1.80;99.90;;;;;;5028647;28;20712;-40
2022/03/06 02:42:37;;;;;;;29.90;17.80;;;1.70;99.90;;;;;;5017322;28;20198;-38
2022/03/06 02:45:10;;;;;;;26.50;17.87;;;1.90;99.90;;;;;;5028567;28;20543;-38
2022/03/06 02:47:36;;;;;;;28.00;19.00;;;2.00;99.90;;;;;;5029078;28;20453;-38
2022/03/06 02:50:05;;;;;;;27.10;17.13;;;2.00;99.90;;;;;;5028142;28;20436;-39
2022/03/06 02:52:30;;;;;;;28.07;17.60;;;1.90;99.90;;;;;;5029093;28;20518;-38
2022/03/06 02:54:56;;;;;;;27.10;17.10;;;1.70;99.90;;;;;;5028329;28;20417;-39
2022/03/06 02:57:22;;;;;;;27.63;16.90;;;1.70;99.90;;;;;;5016219;28;20569;-39
2022/03/06 02:59:48;;;;;;;29.50;18.40;;;1.80;99.90;;;;;;5027667;28;20472;-39
2022/03/06 03:02:13;;;;;;;27.30;16.93;;;2.10;99.90;;;;;;5028787;28;20198;-38
2022/03/06 03:04:39;;;;;;;24.00;17.70;;;1.90;99.90;;;;;;5028139;28;20210;-39
2022/03/06 03:07:07;;;;;;;24.53;17.60;;;1.80;99.90;;;;;;5028489;28;20297;-38
2022/03/06 03:09:34;;;;;;;28.10;18.30;;;1.60;99.90;;;;;;5027863;28;20421;-38
2022/03/06 03:12:00;;;;;;;27.40;18.50;;;1.70;99.90;;;;;;5021692;28;20468;-38
2022/03/06 03:14:26;;;;;;;25.07;17.87;;;1.60;99.90;;;;;;5025167;28;20918;-38
2022/03/06 03:16:52;;;;;;;25.70;17.87;;;1.70;99.90;;;;;;5028441;28;20425;-38
2022/03/06 03:19:18;;;;;;;24.93;17.97;;;1.90;99.90;;;;;;5027421;28;20193;-38
2022/03/06 03:21:44;;;;;;;23.43;17.73;;;1.80;99.90;;;;;;5031977;28;20429;-38
2022/03/06 03:24:10;;;;;;;28.13;17.33;;;1.80;99.90;;;;;;5046773;28;20627;-39
2022/03/06 03:26:36;;;;;;;26.80;18.23;;;1.90;99.90;;;;;;5035484;28;20434;-39
2022/03/06 03:29:02;;;;;;;24.53;17.67;;;2.10;99.90;;;;;;5021618;28;20638;-39
2022/03/06 03:31:28;;;;;;;31.23;18.53;;;1.80;99.90;;;;;;5026984;28;20737;-39
2022/03/06 03:33:54;;;;;;;29.60;18.87;;;1.70;99.90;;;;;;5028011;28;20445;-39
2022/03/06 03:36:19;;;;;;;29.40;18.90;;;1.70;99.90;;;;;;5027842;28;20421;-38
2022/03/06 03:38:45;;;;;;;28.87;17.30;;;1.70;99.90;;;;;;5028017;28;20761;-39
2022/03/06 03:41:11;;;;;;;25.83;18.40;;;1.50;99.90;;;;;;5024689;28;20552;-38
2022/03/06 03:43:37;;;;;;;29.13;18.80;;;1.50;99.90;;;;;;5018159;28;20460;-39
2022/03/06 03:46:05;;;;;;;25.80;17.60;;;1.60;99.90;;;;;;5026138;28;20806;-39
2022/03/06 03:48:32;;;;;;;29.20;17.37;;;1.60;99.90;;;;;;5027934;28;20437;-38
2022/03/06 03:50:58;;;;;;;28.10;18.20;;;1.80;99.90;;;;;;5026818;28;20433;-39
2022/03/06 03:53:24;;;;;;;31.53;18.63;;;1.90;99.90;;;;;;5027388;28;20425;-38
2022/03/06 03:55:52;;;;;;;30.20;18.60;;;2.00;99.90;;;;;;5027448;28;20909;-38
2022/03/06 03:58:18;;;;;;;25.47;18.27;;;2.10;99.90;;;;;;5022085;28;20652;-38
2022/03/06 04:00:44;;;;;;;25.30;16.90;;;2.30;99.90;;;;;;5026778;28;20452;-39
2022/03/06 04:03:10;;;;;;;25.60;18.17;;;2.10;99.90;;;;;;5027282;28;20947;-39
2022/03/06 04:05:36;;;;;;;26.37;18.40;;;2.50;99.90;;;;;;5026061;28;20429;-38
2022/03/06 04:08:02;;;;;;;31.03;18.07;;;2.40;99.90;;;;;;5006261;28;20897;-38
2022/03/06 04:10:28;;;;;;;25.27;17.17;;;2.20;99.90;;;;;;5026801;28;20198;-38
2022/03/06 04:12:53;;;;;;;25.10;16.77;;;2.70;99.90;;;;;;5017944;28;20469;-38
2022/03/06 04:15:19;;;;;;;23.73;17.70;;;2.70;99.90;;;;;;5025897;28;20607;-39
2022/03/06 04:17:45;;;;;;;27.70;17.40;;;2.50;99.90;;;;;;5027219;28;20273;-38
2022/03/06 04:20:11;;;;;;;27.20;17.80;;;2.60;99.90;;;;;;5026533;28;20568;-39
2022/03/06 04:22:36;;;;;;;30.10;17.83;;;2.30;99.90;;;;;;5038235;28;20290;-39
2022/03/06 04:25:02;;;;;;;24.97;16.53;;;2.30;99.90;;;;;;5045029;28;20198;-39
2022/03/06 04:27:28;;;;;;;27.23;18.37;;;2.30;99.90;;;;;;5030175;28;20667;-38
2022/03/06 04:29:54;;;;;;;24.83;17.10;;;2.10;99.90;;;;;;5025254;28;20560;-38
2022/03/06 04:32:19;;;;;;;30.60;18.80;;;2.10;99.90;;;;;;5026878;28;20259;-38
2022/03/06 04:34:45;;;;;;;25.43;17.87;;;2.00;99.90;;;;;;5026807;28;20277;-39
2022/03/06 04:37:10;;;;;;;30.03;17.93;;;1.70;99.90;;;;;;5026895;28;20197;-38
2022/03/06 04:39:36;;;;;;;27.10;17.90;;;1.60;99.90;;;;;;5026328;28;20202;-38
2022/03/06 04:42:02;;;;;;;29.97;18.90;;;1.80;99.90;;;;;;5022416;28;20199;-38
2022/03/06 04:44:28;;;;;;;29.13;18.20;;;1.70;99.90;;;;;;5017535;28;20229;-39
2022/03/06 04:46:54;;;;;;;35.53;18.70;;;1.80;99.90;;;;;;5025553;28;20913;-38
2022/03/06 04:49:19;;;;;;;30.53;18.87;;;1.80;99.90;;;;;;5026660;28;20195;-39
2022/03/06 04:51:45;;;;;;;24.23;16.70;;;1.60;99.90;;;;;;5025968;28;20305;-38
2022/03/06 04:54:10;;;;;;;30.20;19.20;;;1.60;99.90;;;;;;5026655;28;20218;-40
2022/03/06 04:56:36;;;;;;;27.50;17.03;;;1.40;99.90;;;;;;5024785;28;20202;-39
2022/03/06 04:59:02;;;;;;;26.40;17.97;;;1.50;99.90;;;;;;5015767;28;20334;-39
2022/03/06 05:01:28;;;;;;;27.40;19.10;;;1.60;99.90;;;;;;5026068;28;20197;-39
2022/03/06 05:03:53;;;;;;;27.13;18.77;;;1.30;99.90;;;;;;5026730;28;20186;-39
2022/03/06 05:06:19;;;;;;;26.80;17.20;;;1.60;99.90;;;;;;5026293;28;20222;-39
2022/03/06 05:08:45;;;;;;;25.93;17.80;;;1.60;99.90;;;;;;5026583;28;20464;-38
2022/03/06 05:11:11;;;;;;;26.67;17.80;;;1.60;99.90;;;;;;5025843;28;20202;-39
2022/03/06 05:13:37;;;;;;;26.43;16.33;;;1.60;99.90;;;;;;5017653;28;20468;-38
2022/03/06 05:16:03;;;;;;;23.03;15.53;;;1.80;99.90;;;;;;5024927;28;20869;-39
2022/03/06 05:18:29;;;;;;;25.40;16.43;;;1.70;99.90;;;;;;5026615;28;20579;-39
2022/03/06 05:20:55;;;;;;;22.53;16.50;;;1.80;99.90;;;;;;5025888;28;20519;-39
2022/03/06 05:23:21;;;;;;;24.97;16.97;;;1.70;99.90;;;;;;5044355;28;20236;-38
2022/03/06 05:25:47;;;;;;;24.00;17.30;;;1.50;99.90;;;;;;5045721;28;20827;-39
2022/03/06 05:28:14;;;;;;;23.10;16.70;;;1.50;99.90;;;;;;5024579;28;20430;-38
2022/03/06 05:30:40;;;;;;;23.60;15.97;;;1.70;99.90;;;;;;5024706;28;20200;-38
2022/03/06 05:33:06;;;;;;;25.33;16.77;;;1.80;99.90;;;;;;5024945;28;20608;-38
2022/03/06 05:35:32;;;;;;;24.27;16.17;;;1.80;99.90;;;;;;5026469;28;20421;-39
2022/03/06 05:37:58;;;;;;;24.93;16.23;;;2.00;99.90;;;;;;5026432;28;20451;-38
2022/03/06 05:40:24;;;;;;;26.70;16.30;;;2.30;99.90;;;;;;5025966;28;20778;-39
2022/03/06 05:42:49;;;;;;;22.47;16.27;;;2.00;99.90;;;;;;5021279;28;20183;-38
2022/03/06 05:45:15;;;;;;;20.77;15.17;;;2.10;99.90;;;;;;5023237;28;21050;-39
2022/03/06 05:47:41;;;;;;;18.77;15.57;;;2.00;99.90;;;;;;5029748;28;20289;-38
2022/03/06 05:50:07;;;;;;;22.13;15.70;;;1.90;99.90;;;;;;5029052;28;20198;-39
2022/03/06 05:52:33;;;;;;;22.20;15.83;;;1.80;99.90;;;;;;5029942;28;20222;-39
2022/03/06 05:54:59;;;;;;;26.17;16.07;;;1.50;99.90;;;;;;5028343;28;20971;-38
2022/03/06 05:57:25;;;;;;;24.57;16.03;;;1.60;99.90;;;;;;5026870;28;20541;-38
2022/03/06 05:59:51;;;;;;;22.73;16.17;;;1.40;99.90;;;;;;5020051;28;20483;-39
2022/03/06 06:02:19;;;;;;;26.63;17.07;;;1.40;99.90;;;;;;5029099;28;20846;-38
2022/03/06 06:04:45;;;;;;;25.30;16.40;;;1.20;99.90;;;;;;5029337;28;20440;-39
2022/03/06 06:07:10;;;;;;;21.73;16.43;;;1.20;99.90;;;;;;5029429;28;20433;-39
2022/03/06 06:09:36;;;;;;;25.10;15.87;;;1.30;99.90;;;;;;5029309;28;20231;-39
2022/03/06 06:12:03;;;;;;;22.80;15.53;;;1.30;99.90;;;;;;5028076;28;20289;-39
2022/03/06 06:14:29;;;;;;;24.93;16.90;;;1.40;99.90;;;;;;5019792;28;20422;-39
2022/03/06 06:16:55;;;;;;;22.47;16.37;;;1.20;99.90;;;;;;5029276;28;20573;-38
2022/03/06 06:19:20;;;;;;;24.50;16.97;;;1.30;99.90;;;;;;5028543;28;20190;-39
2022/03/06 06:21:46;;;;;;;24.63;16.73;;;1.30;99.90;;;;;;5027015;28;20194;-38
2022/03/06 06:24:13;;;;;;;23.87;17.47;;;1.30;99.90;;;;;;5028531;28;20183;-39
2022/03/06 06:26:39;;;;;;;21.80;16.07;;;1.00;99.90;;;;;;5028927;28;20328;-39
2022/03/06 06:29:05;;;;;;;25.67;16.97;;;1.00;99.90;;;;;;5020391;28;20448;-39
2022/03/06 06:31:31;;;;;;;23.70;17.30;;;1.10;99.90;;;;;;5028620;28;20461;-39
2022/03/06 06:33:57;;;;;;;26.73;17.50;;;1.00;99.90;;;;;;5029014;28;20258;-39
2022/03/06 06:36:23;;;;;;;24.20;17.10;;;0.80;99.90;;;;;;5029118;28;20567;-39
2022/03/06 06:38:49;;;;;;;27.93;18.13;;;0.90;99.90;;;;;;5029130;28;20425;-39
2022/03/06 06:41:14;;;;;;;24.80;16.63;;;0.80;99.90;;;;;;5028170;28;20309;-39
2022/03/06 06:43:42;;;;;;;22.07;15.97;;;1.00;99.90;;;;;;5019196;28;20186;-38
2022/03/06 06:46:08;;;;;;;22.97;16.10;;;1.10;99.90;;;;;;5028699;28;20178;-39
2022/03/06 06:48:34;;;;;;;23.37;17.70;;;1.30;99.90;;;;;;5028385;28;20417;-39
2022/03/06 06:50:59;;;;;;;28.73;17.30;;;1.10;99.90;;;;;;5026891;28;20424;-39
2022/03/06 06:53:25;;;;;;;25.10;17.20;;;1.40;99.90;;;;;;5027481;28;20195;-39
2022/03/06 06:55:51;;;;;;;25.50;17.20;;;1.50;99.90;;;;;;5028432;28;20191;-39
2022/03/06 06:58:16;;;;;;;21.77;15.90;;;1.50;99.90;;;;;;5019753;28;20199;-38
2022/03/06 07:00:42;;;;;;;25.33;16.57;;;1.70;99.90;;;;;;5017894;28;20187;-39
2022/03/06 07:03:09;;;;;;;22.83;17.20;;;1.80;99.90;;;;;;5027123;28;20727;-39
2022/03/06 07:05:35;;;;;;;25.33;17.37;;;1.40;99.90;;;;;;5027635;28;20190;-39
2022/03/06 07:08:00;;;;;;;22.90;16.47;;;1.80;99.90;;;;;;5028263;28;20432;-39
2022/03/06 07:10:26;;;;;;;27.70;15.90;;;1.60;99.90;;;;;;5027971;28;20429;-38
2022/03/06 07:12:55;;;;;;;22.70;16.33;;;1.80;99.90;;;;;;5024147;28;20218;-39
2022/03/06 07:15:21;;;;;;;25.53;16.23;;;1.80;99.90;;;;;;5020359;28;20207;-39
2022/03/06 07:17:47;;;;;;;22.03;15.90;;;2.00;99.90;;;;;;5027981;28;20421;-39
2022/03/06 07:20:13;;;;;;;26.07;16.80;;;2.00;99.90;;;;;;5027531;28;20435;-38
2022/03/06 07:22:38;;;;;;;23.07;17.10;;;2.20;99.90;;;;;;5039613;28;20647;-38
2022/03/06 07:25:05;;;;;;;24.33;15.90;;;2.10;99.90;;;;;;5047241;28;20196;-39
2022/03/06 07:27:30;;;;;;;22.70;16.80;;;2.10;99.90;;;;;;5048207;28;20194;-40
2022/03/06 07:29:57;;;;;;;25.57;18.00;;;2.20;99.90;;;;;;5015710;28;20441;-39
2022/03/06 07:32:23;;;;;;;22.90;16.17;;;2.30;99.90;;;;;;5027449;28;20209;-38
2022/03/06 07:34:49;;;;;;;21.70;16.50;;;2.70;99.90;;;;;;5027978;28;20417;-38
2022/03/06 07:37:15;;;;;;;23.20;16.93;;;2.60;99.90;;;;;;5027813;28;20421;-39
2022/03/06 07:39:41;;;;;;;21.43;16.47;;;2.90;99.90;;;;;;5026986;28;20217;-39
2022/03/06 07:42:07;;;;;;;22.50;15.07;;;3.20;99.90;;;;;;5028048;28;20273;-39
2022/03/06 07:44:32;;;;;;;22.87;16.57;;;3.30;99.90;;;;;;5020228;28;20528;-39
2022/03/06 07:46:58;;;;;;;24.53;18.00;;;3.20;99.90;;;;;;5027108;28;20615;-39
2022/03/06 07:49:24;;;;;;;20.40;17.53;;;3.50;99.90;;;;;;5027613;28;20269;-38
2022/03/06 07:51:49;;;;;;;23.57;16.93;;;3.50;99.90;;;;;;5026676;28;20600;-38
2022/03/06 07:54:17;;;;;;;24.20;17.00;;;3.80;99.90;;;;;;5027629;28;20190;-39
2022/03/06 07:56:43;;;;;;;20.83;16.13;;;3.90;99.90;;;;;;5027290;28;20198;-39
2022/03/06 07:59:09;;;;;;;25.40;16.60;;;4.10;99.90;;;;;;5020113;28;20791;-38
2022/03/06 08:01:35;;;;;;;21.63;16.13;;;4.40;99.90;;;;;;5023104;28;20434;-39
2022/03/06 08:04:01;;;;;;;21.63;15.97;;;4.70;99.90;;;;;;5022656;28;20504;-38
2022/03/06 08:06:26;;;;;;;21.93;16.20;;;4.90;99.90;;;;;;5025818;28;20732;-39
2022/03/06 08:08:52;;;;;;;20.80;16.33;;;5.10;99.80;;;;;;5032086;28;20500;-38
2022/03/06 08:11:18;;;;;;;19.30;15.50;;;4.60;99.90;;;;;;5008124;28;20436;-38
2022/03/06 08:13:44;;;;;;;21.10;15.73;;;4.50;99.90;;;;;;5022503;28;20178;-39
2022/03/06 08:16:09;;;;;;;21.07;15.57;;;4.30;99.90;;;;;;5026346;28;20708;-39
2022/03/06 08:18:35;;;;;;;22.33;16.23;;;4.20;99.90;;;;;;5026153;28;20656;-39
2022/03/06 08:21:01;;;;;;;23.60;16.47;;;4.20;99.90;;;;;;5025348;28;20190;-39
2022/03/06 08:23:27;;;;;;;21.23;15.87;;;4.30;99.90;;;;;;5033747;28;20412;-38
2022/03/06 08:25:53;;;;;;;21.03;16.00;;;4.20;99.90;;;;;;5046049;28;20563;-38
2022/03/06 08:28:19;;;;;;;22.10;16.67;;;4.50;99.90;;;;;;5040707;28;20755;-39
2022/03/06 08:30:45;;;;;;;22.40;16.50;;;4.50;99.90;;;;;;5019059;28;20240;-39
2022/03/06 08:33:11;;;;;;;22.80;17.00;;;4.10;99.90;;;;;;5024593;28;20218;-39
2022/03/06 08:35:36;;;;;;;24.67;16.83;;;4.30;99.90;;;;;;5036560;28;20421;-39
2022/03/06 08:38:02;;;;;;;21.40;16.67;;;4.20;99.90;;;;;;5039527;28;20799;-38
2022/03/06 08:40:28;;;;;;;22.10;16.40;;;4.30;99.90;;;;;;5045449;28;20672;-39
2022/03/06 08:42:54;;;;;;;24.90;17.20;;;4.40;99.90;;;;;;5020115;28;20198;-39
2022/03/06 08:45:19;;;;;;;18.60;14.83;;;4.30;99.90;;;;;;5020098;28;20712;-39
2022/03/06 08:47:45;;;;;;;19.53;15.57;;;4.40;99.90;;;;;;5024612;28;20585;-39
2022/03/06 08:50:11;;;;;;;18.77;15.00;;;4.30;99.90;;;;;;5023894;28;20368;-39
2022/03/06 08:52:37;;;;;;;20.23;14.80;;;4.40;99.90;;;;;;5026458;28;20975;-38
2022/03/06 08:55:04;;;;;;;22.07;15.83;;;4.30;99.90;;;;;;5033081;28;20182;-38
2022/03/06 08:57:29;;;;;;;18.83;14.90;;;4.80;99.90;;;;;;5023578;28;20673;-38
2022/03/06 08:59:55;;;;;;;19.63;15.20;;;5.00;99.90;;;;;;5020279;28;20520;-39
2022/03/06 09:02:21;;;;;;;21.33;16.30;;;4.80;99.90;;;;;;5025248;28;20256;-39
2022/03/06 09:04:48;;;;;;;19.43;15.60;;;4.90;99.90;;;;;;5024410;28;20186;-39
2022/03/06 09:07:14;;;;;;;21.70;14.80;;;5.00;99.90;;;;;;5026056;28;20428;-39
2022/03/06 09:09:39;;;;;;;19.73;15.37;;;5.00;99.90;;;;;;5019334;28;20524;-38
2022/03/06 09:12:05;;;;;;;20.13;14.70;;;5.10;99.90;;;;;;5024375;28;20260;-39
2022/03/06 09:14:31;;;;;;;19.53;15.50;;;5.30;99.90;;;;;;5014130;28;20190;-39
2022/03/06 09:16:57;;;;;;;21.50;15.67;;;5.10;99.90;;;;;;5024015;28;20436;-38
2022/03/06 09:19:23;;;;;;;23.97;15.80;;;5.50;99.80;;;;;;5025850;28;20266;-38
2022/03/06 09:21:49;;;;;;;18.13;14.70;;;5.20;99.70;;;;;;5028419;28;20252;-39
2022/03/06 09:24:15;;;;;;;20.07;15.40;;;5.60;99.30;;;;;;5027984;28;20888;-39
2022/03/06 09:26:42;;;;;;;21.87;14.87;;;6.00;99.10;;;;;;5029341;28;20285;-38
2022/03/06 09:29:08;;;;;;;17.53;14.00;;;6.20;98.60;;;;;;5022889;28;20191;-39
2022/03/06 09:31:34;;;;;;;17.70;13.80;;;6.50;97.40;;;;;;5021735;28;20526;-39
2022/03/06 09:34:00;;;;;;;17.67;14.50;;;6.70;96.80;;;;;;5029087;28;20417;-39
2022/03/06 09:36:26;;;;;;;20.57;15.00;;;7.10;96.60;;;;;;5020983;28;20555;-38
2022/03/06 09:38:51;;;;;;;18.30;14.13;;;7.40;95.40;;;;;;5026384;28;20190;-38
2022/03/06 09:41:20;;;;;;;15.87;13.53;;;7.40;95.10;;;;;;5020653;28;20183;-38
2022/03/06 09:43:47;;;;;;;20.27;15.33;;;7.50;94.70;;;;;;5025861;28;20218;-38
2022/03/06 09:46:13;;;;;;;16.40;14.30;;;7.70;94.40;;;;;;5020238;28;20583;-39
2022/03/06 09:48:38;;;;;;;16.87;13.37;;;8.00;93.10;;;;;;5028475;28;20624;-39
2022/03/06 09:51:05;;;;;;;19.23;14.67;;;8.20;92.70;;;;;;5029843;28;20190;-38
2022/03/06 09:53:31;;;;;;;16.20;13.13;;;8.10;92.10;;;;;;5028949;28;20552;-39
2022/03/06 09:55:57;;;;;;;19.57;13.67;;;8.50;92.10;;;;;;5028314;28;20516;-39
2022/03/06 09:58:23;;;;;;;19.57;14.53;;;8.40;91.40;;;;;;5028173;28;20508;-38
2022/03/06 10:00:50;;;;;;;17.57;14.07;;;8.60;91.50;;;;;;5022105;28;20182;-39
2022/03/06 10:03:20;;;;;;;18.43;14.40;;;8.80;91.50;;;;;;5027919;28;20560;-39
2022/03/06 10:05:46;;;;;;;17.60;14.67;;;9.00;90.30;;;;;;5029893;28;20421;-39
2022/03/06 10:08:24;;;;;;;17.47;13.37;;;9.00;90.70;;;;;;5026746;28;20999;-39
2022/03/06 10:10:58;;;;;;;16.40;12.80;;;9.20;90.10;;;;;;5026507;28;20938;-39
2022/03/06 10:13:25;;;;;;;14.97;13.17;;;9.20;90.00;;;;;;5027073;28;20475;-39
2022/03/06 10:16:03;;;;;;;16.87;14.50;;;9.30;89.20;;;;;;5016755;28;20441;-39
2022/03/06 10:18:31;;;;;;;17.00;13.00;;;9.10;88.10;;;;;;5028513;28;20782;-39
2022/03/06 10:21:12;;;;;;;15.70;13.67;;;9.00;87.40;;;;;;5026335;28;20422;-39
2022/03/06 10:23:39;;;;;;;16.77;13.80;;;9.20;88.30;;;;;;5020340;28;20929;-39
2022/03/06 10:26:10;;;;;;;20.00;14.30;;;9.40;87.50;;;;;;5028283;28;20816;-39
2022/03/06 10:28:53;;;;;;;17.53;14.40;;;9.70;87.60;;;;;;5022412;28;20434;-39
2022/03/06 10:31:21;;;;;;;16.20;13.53;;;9.50;87.10;;;;;;5023423;28;20421;-39
2022/03/06 10:34:10;;;;;;;18.03;14.90;;;9.70;86.50;;;;;;5028067;28;20507;-39
2022/03/06 10:36:53;;;;;;;17.50;13.80;;;9.80;86.80;;;;;;5027939;28;20409;-39
2022/03/06 10:39:23;;;;;;;18.10;14.37;;;9.70;84.60;;;;;;5028225;28;20424;-41
2022/03/06 10:41:53;;;;;;;17.23;14.00;;;9.70;85.70;;;;;;5026036;28;20432;-39
2022/03/06 10:44:20;;;;;;;16.27;13.73;;;9.90;84.40;;;;;;5024973;28;20986;-39
2022/03/06 10:47:04;;;;;;;14.83;13.30;;;10.00;80.60;;;;;;5019732;28;20429;-41
2022/03/06 10:49:32;;;;;;;15.87;14.17;;;10.20;80.10;;;;;;5024717;28;20436;-39
2022/03/06 10:52:19;;;;;;;17.83;14.70;;;10.50;80.60;;;;;;5027694;28;20463;-39
2022/03/06 10:54:56;;;;;;;14.13;12.63;;;10.30;79.40;;;;;;5027406;28;20432;-40
2022/03/06 10:57:23;;;;;;;18.20;13.00;;;10.20;80.40;;;;;;5027639;28;20840;-39
2022/03/06 10:59:50;;;;;;;16.70;13.67;;;10.10;78.20;;;;;;5020985;28;20814;-39
2022/03/06 11:02:16;;;;;;;15.20;13.60;;;10.00;78.70;;;;;;5021471;28;20782;-40
2022/03/06 11:04:45;;;;;;;15.70;13.60;;;10.00;79.10;;;;;;5025820;28;20947;-39
2022/03/06 11:07:12;;;;;;;15.43;13.23;;;9.90;78.80;;;;;;5027734;28;20413;-39
2022/03/06 11:09:39;;;;;;;12.57;11.27;;;9.60;78.80;;;;;;5028974;28;20417;-40
2022/03/06 11:12:05;;;;;;;13.47;12.03;;;9.50;78.10;;;;;;5028181;28;20821;-39
2022/03/06 11:14:32;;;;;;;14.97;12.37;;;9.70;75.70;;;;;;5024438;28;20418;-39
2022/03/06 11:16:58;;;;;;;13.33;10.60;;;9.40;76.30;;;;;;5026045;28;20421;-39
2022/03/06 11:19:26;;;;;;;16.63;11.70;;;9.30;74.10;;;;;;5027598;28;20430;-39
2022/03/06 11:22:10;;;;;;;13.03;11.63;;;8.90;71.00;;;;;;5029190;28;20431;-39
2022/03/06 11:24:37;;;;;;;15.13;11.97;;;9.00;71.90;;;;;;5028417;28;20416;-40
2022/03/06 11:27:41;;;;;;;14.43;11.70;;;8.90;70.80;;;;;;5028613;28;20925;-39
2022/03/06 11:30:20;;;;;;;13.30;11.40;;;9.10;72.90;;;;;;5019572;28;20465;-39
2022/03/06 11:33:07;;;;;;;13.73;11.50;;;9.20;74.40;;;;;;5040387;28;20472;-40
2022/03/06 11:35:42;;;;;;;14.10;12.47;;;9.40;72.00;;;;;;5026810;28;20432;-39
2022/03/06 11:38:09;;;;;;;13.23;11.27;;;9.40;71.00;;;;;;5028124;28;20424;-39
2022/03/06 11:40:48;;;;;;;14.03;11.03;;;9.70;72.10;;;;;;5026323;28;20892;-39
2022/03/06 11:43:31;;;;;;;12.00;10.70;;;9.90;71.30;;;;;;5027712;28;20432;-39
2022/03/06 11:46:05;;;;;;;14.93;10.97;;;10.00;65.20;;;;;;5018438;28;20812;-39
2022/03/06 11:48:33;;;;;;;14.00;11.60;;;10.10;63.40;;;;;;5028057;28;20468;-39
2022/03/06 11:51:21;;;;;;;14.53;11.90;;;10.00;63.30;;;;;;5026561;28;20443;-40
2022/03/06 11:53:56;;;;;;;12.40;11.10;;;10.00;64.70;;;;;;5028283;28;21065;-39
2022/03/06 11:56:39;;;;;;;14.97;11.20;;;10.10;63.60;;;;;;5027810;28;20452;-40
2022/03/06 11:59:24;;;;;;;12.83;11.10;;;10.00;66.30;;;;;;5026766;28;20560;-40
2022/03/06 12:01:56;;;;;;;12.53;10.77;;;10.10;64.40;;;;;;5014225;28;20656;-39
2022/03/06 12:04:34;;;;;;;12.60;11.30;;;10.30;64.80;;;;;;5027759;28;20436;-39
2022/03/06 12:07:02;;;;;;;13.07;11.40;;;10.70;65.10;;;;;;5027724;28;20487;-39
2022/03/06 12:09:31;;;;;;;13.17;11.60;;;10.80;62.30;;;;;;5027437;28;20436;-39
2022/03/06 12:12:05;;;;;;;14.77;12.60;;;10.70;63.10;;;;;;5026938;28;20477;-39
2022/03/06 12:14:33;;;;;;;14.77;13.27;;;10.50;61.70;;;;;;5027452;28;20432;-39
2022/03/06 12:17:02;;;;;;;15.80;13.13;;;10.50;63.10;;;;;;5015849;28;20747;-40
2022/03/06 12:19:51;;;;;;;15.57;12.83;;;10.50;64.10;;;;;;5027426;28;20912;-39
2022/03/06 12:22:21;;;;;;;15.47;12.50;;;10.40;64.70;;;;;;5036883;28;20439;-39
2022/03/06 12:25:15;;;;;;;16.43;14.20;;;10.50;64.70;;;;;;5035677;28;20428;-39
2022/03/06 12:28:03;;;;;;;15.23;13.67;;;9.90;63.90;;;;;;5047137;28;20919;-39
2022/03/06 12:30:30;;;;;;;15.93;14.27;;;9.80;65.10;;;;;;5027904;28;20448;-41
2022/03/06 12:32:56;;;;;;;14.30;12.90;;;9.50;66.10;;;;;;5025368;28;20476;-41
2022/03/06 12:35:22;;;;;;;15.23;13.43;;;9.50;65.80;;;;;;5027465;28;20464;-39
2022/03/06 12:37:54;;;;;;;14.33;12.80;;;9.40;65.70;;;;;;5026012;28;20855;-39